Time;durP1;ratioP1;P1;durP2;ratioP2;P2;SDS_P1;SDS_P2;PMS_P1;PMS_P2;Temp;Humidity;BMP_temperature;BMP_pressure;BME280_temperature;BME280_humidity;BME280_pressure;Samples;Min_cycle;Max_cycle;Signal;HPM_P1;HPM_P2
2021/05/16 00:00:15;;;;;;;4.60;2.10;;;;;;;;;;5058801;28;20188;-81
2021/05/16 00:02:41;;;;;;;5.25;1.73;;;;;;;;;;5059593;28;20227;-83
2021/05/16 00:05:08;;;;;;;5.97;1.90;;;;;;;;;;5063661;28;20181;-81
2021/05/16 00:07:34;;;;;;;6.95;2.30;;;;;;;;;;5062537;28;20495;-85
2021/05/16 00:10:00;;;;;;;6.20;1.65;;;;;;;;;;5065462;28;20486;-84
2021/05/16 00:12:26;;;;;;;5.32;1.55;;;;;;;;;;5058492;28;20201;-84
2021/05/16 00:14:52;;;;;;;7.70;1.50;;;;;;;;;;5065351;28;20716;-82
2021/05/16 00:17:18;;;;;;;6.70;1.90;;;;;;;;;;5063405;28;20248;-81
2021/05/16 00:19:46;;;;;;;4.00;1.67;;;;;;;;;;5079075;28;20427;-80
2021/05/16 00:22:12;;;;;;;4.88;1.50;;;;;;;;;;5073869;28;20215;-81
2021/05/16 00:24:38;;;;;;;6.93;1.67;;;;;;;;;;5059025;28;20191;-80
2021/05/16 00:27:04;;;;;;;5.77;1.83;;;;;;;;;;5062782;28;20185;-80
2021/05/16 00:29:30;;;;;;;4.53;1.23;;;;;;;;;;5060589;28;20444;-80
2021/05/16 00:31:56;;;;;;;9.53;2.33;;;;;;;;;;5060856;28;20228;-81
2021/05/16 00:34:22;;;;;;;7.70;1.90;;;;;;;;;;5072999;28;20408;-80
2021/05/16 00:36:48;;;;;;;5.97;1.50;;;;;;;;;;5062237;28;20165;-81
2021/05/16 00:39:14;;;;;;;11.45;1.80;;;;;;;;;;5059004;28;20181;-81
2021/05/16 00:41:40;;;;;;;3.42;1.30;;;;;;;;;;5059486;28;20208;-81
2021/05/16 00:44:07;;;;;;;2.70;1.35;;;;;;;;;;5061889;28;20185;-81
2021/05/16 00:46:33;;;;;;;2.42;1.33;;;;;;;;;;5061785;28;20188;-81
2021/05/16 00:48:59;;;;;;;4.63;1.65;;;;;;;;;;5059486;28;20168;-80
2021/05/16 00:51:25;;;;;;;6.60;1.73;;;;;;;;;;5062810;28;20207;-81
2021/05/16 00:53:51;;;;;;;5.30;1.40;;;;;;;;;;5059879;28;20184;-81
2021/05/16 00:56:17;;;;;;;4.82;1.70;;;;;;;;;;5058357;28;20188;-81
2021/05/16 00:58:43;;;;;;;9.07;1.98;;;;;;;;;;5073743;28;20181;-81
2021/05/16 01:01:10;;;;;;;7.20;2.17;;;;;;;;;;5073362;28;20181;-81
2021/05/16 01:03:37;;;;;;;7.03;1.90;;;;;;;;;;5079144;28;20169;-81
2021/05/16 01:06:03;;;;;;;4.47;1.92;;;;;;;;;;5058689;28;20188;-81
2021/05/16 01:08:29;;;;;;;7.85;1.70;;;;;;;;;;5059623;28;20193;-81
2021/05/16 01:10:55;;;;;;;3.20;1.58;;;;;;;;;;5072710;28;20233;-81
2021/05/16 01:13:21;;;;;;;3.42;1.58;;;;;;;;;;5062097;28;20177;-81
2021/05/16 01:15:47;;;;;;;8.75;1.77;;;;;;;;;;5062244;28;20172;-81
2021/05/16 01:18:13;;;;;;;3.92;1.70;;;;;;;;;;5058576;28;20181;-82
2021/05/16 01:20:41;;;;;;;7.47;1.90;;;;;;;;;;5059326;28;20190;-81
2021/05/16 01:23:07;;;;;;;4.95;2.30;;;;;;;;;;5070194;28;20186;-81
2021/05/16 01:25:35;;;;;;;7.40;1.60;;;;;;;;;;5062321;28;20188;-81
2021/05/16 01:28:02;;;;;;;7.38;1.75;;;;;;;;;;5058269;28;20483;-82
2021/05/16 01:30:28;;;;;;;4.78;1.55;;;;;;;;;;5058143;28;20212;-81
2021/05/16 01:32:54;;;;;;;7.15;1.70;;;;;;;;;;5056795;28;20215;-81
2021/05/16 01:35:21;;;;;;;13.40;2.10;;;;;;;;;;5069129;28;20216;-82
2021/05/16 01:37:48;;;;;;;8.52;1.98;;;;;;;;;;5062323;28;20643;-82
2021/05/16 01:40:15;;;;;;;6.32;1.65;;;;;;;;;;5064497;28;20280;-82
2021/05/16 01:42:46;;;;;;;2.03;1.30;;;;;;;;;;5064177;28;20181;-82
2021/05/16 01:45:14;;;;;;;3.33;1.70;;;;;;;;;;5065375;28;20220;-81
2021/05/16 01:47:40;;;;;;;7.55;1.83;;;;;;;;;;5062535;28;20684;-81
2021/05/16 01:50:16;;;;;;;10.52;2.25;;;;;;;;;;5064792;28;20180;-81
2021/05/16 01:52:42;;;;;;;5.18;2.25;;;;;;;;;;5074232;28;20255;-81
2021/05/16 01:55:09;;;;;;;6.28;2.38;;;;;;;;;;5067519;28;20206;-81
2021/05/16 01:57:35;;;;;;;5.63;2.15;;;;;;;;;;5059618;28;20299;-81
2021/05/16 02:00:02;;;;;;;8.75;2.30;;;;;;;;;;5066155;28;20185;-82
2021/05/16 02:02:28;;;;;;;10.60;2.28;;;;;;;;;;5064463;28;20566;-81
2021/05/16 02:04:54;;;;;;;8.60;3.25;;;;;;;;;;5075657;28;20595;-81
2021/05/16 02:07:20;;;;;;;8.98;2.55;;;;;;;;;;5066281;28;20189;-82
2021/05/16 02:09:47;;;;;;;10.05;2.40;;;;;;;;;;5063310;28;20216;-81
2021/05/16 02:12:16;;;;;;;10.77;2.00;;;;;;;;;;5062769;28;20269;-81
2021/05/16 02:14:43;;;;;;;5.07;3.03;;;;;;;;;;5064279;28;20183;-81
2021/05/16 02:17:11;;;;;;;3.58;2.03;;;;;;;;;;5065611;28;20185;-81
2021/05/16 02:19:37;;;;;;;14.18;3.15;;;;;;;;;;5075705;28;20177;-82
2021/05/16 02:22:03;;;;;;;18.47;2.60;;;;;;;;;;5065371;28;20183;-82
2021/05/16 02:24:29;;;;;;;11.43;2.33;;;;;;;;;;5080970;28;20467;-81
2021/05/16 02:26:59;;;;;;;4.53;1.95;;;;;;;;;;5060105;28;20182;-82
2021/05/16 02:29:25;;;;;;;8.52;1.77;;;;;;;;;;5063831;28;20184;-82
2021/05/16 02:31:51;;;;;;;11.10;2.35;;;;;;;;;;5074459;28;20233;-82
2021/05/16 02:34:17;;;;;;;6.78;2.10;;;;;;;;;;5065600;28;20177;-82
2021/05/16 02:36:45;;;;;;;12.68;2.45;;;;;;;;;;5062740;28;20191;-82
2021/05/16 02:39:11;;;;;;;7.70;2.28;;;;;;;;;;5057640;28;20189;-81
2021/05/16 02:41:37;;;;;;;8.03;1.80;;;;;;;;;;5063433;28;20193;-82
2021/05/16 02:44:03;;;;;;;4.43;2.23;;;;;;;;;;5065371;28;20466;-82
2021/05/16 02:46:29;;;;;;;13.32;3.17;;;;;;;;;;5076670;28;20454;-82
2021/05/16 02:48:55;;;;;;;7.68;2.28;;;;;;;;;;5071038;28;20181;-82
2021/05/16 02:51:21;;;;;;;7.88;2.22;;;;;;;;;;5079564;28;20200;-81
2021/05/16 02:53:48;;;;;;;12.77;3.22;;;;;;;;;;5060206;28;20204;-82
2021/05/16 02:56:14;;;;;;;7.53;2.45;;;;;;;;;;5075158;28;20189;-81
2021/05/16 02:58:41;;;;;;;14.63;2.50;;;;;;;;;;5064920;28;20729;-81
2021/05/16 03:01:07;;;;;;;15.60;2.42;;;;;;;;;;5066685;28;20173;-82
2021/05/16 03:03:33;;;;;;;7.22;2.00;;;;;;;;;;5065570;28;20173;-80
2021/05/16 03:05:59;;;;;;;9.70;2.30;;;;;;;;;;5061208;28;20193;-81
2021/05/16 03:08:25;;;;;;;14.95;2.72;;;;;;;;;;5062966;28;20444;-81
2021/05/16 03:10:51;;;;;;;14.93;3.17;;;;;;;;;;5074477;28;20288;-81
2021/05/16 03:13:17;;;;;;;12.52;4.28;;;;;;;;;;5064626;28;20196;-81
2021/05/16 03:15:43;;;;;;;6.18;1.95;;;;;;;;;;5065606;28;20256;-81
2021/05/16 03:18:10;;;;;;;5.27;1.80;;;;;;;;;;5060809;28;20331;-81
2021/05/16 03:20:36;;;;;;;16.45;2.97;;;;;;;;;;5060604;28;20747;-81
2021/05/16 03:23:01;;;;;;;12.90;2.47;;;;;;;;;;5064619;28;20242;-81
2021/05/16 03:25:28;;;;;;;10.07;2.70;;;;;;;;;;5060204;28;20454;-81
2021/05/16 03:27:54;;;;;;;5.40;2.38;;;;;;;;;;5064622;28;20184;-80
2021/05/16 03:30:20;;;;;;;11.05;2.92;;;;;;;;;;5064567;28;20185;-81
2021/05/16 03:32:46;;;;;;;9.25;3.08;;;;;;;;;;5064767;28;20201;-81
2021/05/16 03:35:13;;;;;;;5.40;2.05;;;;;;;;;;5064581;28;20185;-81
2021/05/16 03:37:39;;;;;;;5.90;2.35;;;;;;;;;;5064423;28;20181;-81
2021/05/16 03:40:06;;;;;;;10.43;3.03;;;;;;;;;;5070194;28;20200;-82
2021/05/16 03:42:32;;;;;;;9.77;2.55;;;;;;;;;;5063913;28;20235;-80
2021/05/16 03:44:58;;;;;;;7.82;2.97;;;;;;;;;;5060232;28;20673;-81
2021/05/16 03:47:24;;;;;;;6.05;2.47;;;;;;;;;;5062484;28;20185;-81
2021/05/16 03:49:51;;;;;;;8.70;3.15;;;;;;;;;;5061156;28;20184;-80
2021/05/16 03:52:19;;;;;;;7.35;2.13;;;;;;;;;;5074497;28;20250;-81
2021/05/16 03:54:46;;;;;;;7.57;2.40;;;;;;;;;;5064794;28;20165;-81
2021/05/16 03:57:12;;;;;;;8.18;2.20;;;;;;;;;;5059475;28;20185;-80
2021/05/16 03:59:38;;;;;;;12.75;2.40;;;;;;;;;;5060997;28;20204;-80
2021/05/16 04:02:04;;;;;;;9.00;2.85;;;;;;;;;;5071981;28;20185;-80
2021/05/16 04:04:30;;;;;;;4.30;2.25;;;;;;;;;;5063529;28;20181;-81
2021/05/16 04:06:56;;;;;;;11.18;2.70;;;;;;;;;;5063519;28;20602;-81
2021/05/16 04:09:22;;;;;;;8.97;2.40;;;;;;;;;;5072735;28;20240;-81
2021/05/16 04:11:48;;;;;;;7.40;2.73;;;;;;;;;;5058701;28;20469;-80
2021/05/16 04:14:16;;;;;;;11.20;2.33;;;;;;;;;;5075191;28;20440;-81
2021/05/16 04:16:42;;;;;;;3.38;2.10;;;;;;;;;;5063654;28;20231;-81
2021/05/16 04:19:08;;;;;;;9.30;2.83;;;;;;;;;;5063380;28;20481;-81
2021/05/16 04:21:34;;;;;;;15.47;2.70;;;;;;;;;;5059167;28;20177;-80
2021/05/16 04:24:00;;;;;;;9.68;2.10;;;;;;;;;;5057907;28;20452;-80
2021/05/16 04:26:26;;;;;;;8.05;2.40;;;;;;;;;;5061289;28;20203;-81
2021/05/16 04:28:52;;;;;;;4.20;2.30;;;;;;;;;;5073045;28;20647;-81
2021/05/16 04:31:18;;;;;;;6.90;1.95;;;;;;;;;;5064272;28;20228;-81
2021/05/16 04:33:44;;;;;;;8.53;2.13;;;;;;;;;;5059181;28;20244;-80
2021/05/16 04:36:10;;;;;;;3.90;2.17;;;;;;;;;;5057548;28;20435;-81
2021/05/16 04:38:36;;;;;;;5.38;2.05;;;;;;;;;;5074369;28;20500;-80
2021/05/16 04:41:02;;;;;;;5.50;1.70;;;;;;;;;;5071525;28;20208;-81
2021/05/16 04:43:28;;;;;;;5.15;2.00;;;;;;;;;;5063478;28;20447;-81
2021/05/16 04:45:54;;;;;;;6.43;2.50;;;;;;;;;;5060706;28;20184;-81
2021/05/16 04:48:20;;;;;;;7.03;2.20;;;;;;;;;;5059450;28;20216;-81
2021/05/16 04:50:46;;;;;;;11.45;2.25;;;;;;;;;;5073941;28;20181;-81
2021/05/16 04:53:12;;;;;;;5.90;2.23;;;;;;;;;;5062117;28;20197;-80
2021/05/16 04:55:38;;;;;;;8.32;1.80;;;;;;;;;;5072034;28;20435;-81
2021/05/16 04:58:04;;;;;;;11.73;2.17;;;;;;;;;;5058138;28;20213;-80
2021/05/16 05:00:30;;;;;;;10.57;2.33;;;;;;;;;;5058931;28;20431;-81
2021/05/16 05:02:56;;;;;;;8.60;2.00;;;;;;;;;;5058250;28;20185;-81
2021/05/16 05:05:22;;;;;;;13.73;2.47;;;;;;;;;;5062444;28;20196;-81
2021/05/16 05:07:48;;;;;;;6.33;2.00;;;;;;;;;;5060598;28;20189;-80
2021/05/16 05:10:14;;;;;;;5.53;1.83;;;;;;;;;;5059287;28;20475;-81
2021/05/16 05:12:40;;;;;;;9.20;2.42;;;;;;;;;;5057208;28;20223;-80
2021/05/16 05:15:06;;;;;;;3.70;1.87;;;;;;;;;;5062274;28;20211;-80
2021/05/16 05:17:33;;;;;;;4.47;2.00;;;;;;;;;;5059613;28;20479;-81
2021/05/16 05:19:59;;;;;;;16.15;3.10;;;;;;;;;;5060267;28;20177;-80
2021/05/16 05:22:25;;;;;;;7.90;2.30;;;;;;;;;;5061659;28;20180;-81
2021/05/16 05:24:51;;;;;;;4.75;1.85;;;;;;;;;;5058965;28;20501;-80
2021/05/16 05:27:17;;;;;;;5.97;2.30;;;;;;;;;;5059195;28;20181;-80
2021/05/16 05:29:43;;;;;;;7.85;1.70;;;;;;;;;;5077927;28;20212;-80
2021/05/16 05:32:10;;;;;;;6.67;1.77;;;;;;;;;;5063049;28;20204;-80
2021/05/16 05:34:36;;;;;;;8.05;2.10;;;;;;;;;;5072281;28;20424;-79
2021/05/16 05:37:02;;;;;;;9.07;2.42;;;;;;;;;;5062766;28;20174;-79
2021/05/16 05:39:28;;;;;;;10.40;3.00;;;;;;;;;;5062311;28;20197;-80
2021/05/16 05:41:54;;;;;;;6.90;2.23;;;;;;;;;;5062793;28;20279;-82
2021/05/16 05:44:20;;;;;;;10.57;2.83;;;;;;;;;;5057354;28;20438;-79
2021/05/16 05:46:46;;;;;;;11.17;3.13;;;;;;;;;;5060569;28;20184;-80
2021/05/16 05:49:12;;;;;;;10.82;2.33;;;;;;;;;;5072691;28;20423;-83
2021/05/16 05:51:38;;;;;;;15.20;3.47;;;;;;;;;;5057725;28;20209;-81
2021/05/16 05:54:04;;;;;;;11.17;3.07;;;;;;;;;;5061656;28;20443;-82
2021/05/16 05:56:30;;;;;;;9.90;2.70;;;;;;;;;;5055891;28;20436;-80
2021/05/16 05:58:56;;;;;;;13.05;2.55;;;;;;;;;;5058866;28;20247;-80
2021/05/16 06:01:22;;;;;;;11.13;3.57;;;;;;;;;;5083778;28;20246;-80
2021/05/16 06:03:49;;;;;;;15.17;4.80;;;;;;;;;;5053704;28;20433;-82
2021/05/16 06:06:15;;;;;;;9.05;3.10;;;;;;;;;;5054590;28;20445;-81
2021/05/16 06:08:41;;;;;;;10.48;2.17;;;;;;;;;;5065871;28;20193;-84
2021/05/16 06:11:07;;;;;;;9.63;2.90;;;;;;;;;;5062110;28;20225;-81
2021/05/16 06:13:33;;;;;;;11.17;3.43;;;;;;;;;;5057741;28;20181;-84
2021/05/16 06:15:59;;;;;;;12.70;3.10;;;;;;;;;;5063902;28;20442;-81
2021/05/16 06:18:25;;;;;;;11.95;3.00;;;;;;;;;;5058281;28;21000;-83
2021/05/16 06:20:51;;;;;;;10.80;3.20;;;;;;;;;;5056759;28;20221;-82
2021/05/16 06:23:18;;;;;;;4.90;3.22;;;;;;;;;;5057189;28;20452;-83
2021/05/16 06:25:47;;;;;;;8.68;3.58;;;;;;;;;;5068027;28;20209;-82
2021/05/16 06:28:13;;;;;;;11.75;3.05;;;;;;;;;;5065292;28;20177;-86
2021/05/16 06:30:39;;;;;;;7.85;2.60;;;;;;;;;;5066774;28;20173;-82
2021/05/16 06:33:05;;;;;;;9.48;3.42;;;;;;;;;;5063324;28;20235;-82
2021/05/16 06:35:32;;;;;;;12.10;3.25;;;;;;;;;;5058721;28;22675;-82
2021/05/16 06:37:58;;;;;;;9.65;2.63;;;;;;;;;;5063938;28;20212;-82
2021/05/16 06:40:24;;;;;;;7.78;2.38;;;;;;;;;;5066426;28;20233;-83
2021/05/16 06:42:50;;;;;;;10.77;2.40;;;;;;;;;;5067004;28;20180;-82
2021/05/16 06:45:16;;;;;;;10.50;3.30;;;;;;;;;;5061654;28;20189;-83
2021/05/16 06:47:42;;;;;;;4.40;1.90;;;;;;;;;;5061471;28;20225;-81
2021/05/16 06:50:09;;;;;;;8.27;2.83;;;;;;;;;;5076452;28;20192;-82
2021/05/16 06:52:35;;;;;;;5.93;2.05;;;;;;;;;;5063206;28;20201;-80
2021/05/16 06:55:01;;;;;;;10.43;2.05;;;;;;;;;;5061052;28;20169;-85
2021/05/16 06:57:27;;;;;;;7.20;1.90;;;;;;;;;;5065097;28;20188;-82
2021/05/16 06:59:53;;;;;;;12.83;3.03;;;;;;;;;;5059156;28;20470;-85
2021/05/16 07:02:19;;;;;;;5.70;2.78;;;;;;;;;;5065700;28;20435;-84
2021/05/16 07:04:48;;;;;;;7.38;1.90;;;;;;;;;;5080000;28;20280;-82
2021/05/16 07:07:14;;;;;;;3.90;1.50;;;;;;;;;;5059111;28;20172;-84
2021/05/16 07:09:42;;;;;;;7.30;2.23;;;;;;;;;;5062216;28;20220;-82
2021/05/16 07:12:09;;;;;;;4.53;2.10;;;;;;;;;;5062616;28;20477;-82
2021/05/16 07:14:35;;;;;;;8.38;2.42;;;;;;;;;;5059011;28;20187;-81
2021/05/16 07:17:00;;;;;;;8.20;2.30;;;;;;;;;;5061905;28;20208;-82
2021/05/16 07:19:27;;;;;;;5.30;2.37;;;;;;;;;;5062316;28;20419;-82
2021/05/16 07:21:52;;;;;;;4.95;1.98;;;;;;;;;;5060584;28;20518;-84
2021/05/16 07:24:18;;;;;;;9.10;2.20;;;;;;;;;;5060573;28;20226;-84
2021/05/16 07:26:44;;;;;;;5.37;2.33;;;;;;;;;;5061800;28;20443;-86
2021/05/16 07:29:10;;;;;;;7.43;1.83;;;;;;;;;;5063510;28;20489;-81
2021/05/16 07:31:36;;;;;;;5.10;3.70;;;;;;;;;;5062080;28;20837;-81
2021/05/16 07:34:02;;;;;;;3.13;1.90;;;;;;;;;;5059850;28;20448;-82
2021/05/16 07:36:28;;;;;;;6.13;1.60;;;;;;;;;;5057088;28;20424;-85
2021/05/16 07:38:54;;;;;;;9.95;2.15;;;;;;;;;;5061121;28;20189;-82
2021/05/16 07:41:20;;;;;;;5.77;2.40;;;;;;;;;;5063464;28;20187;-82
2021/05/16 07:43:46;;;;;;;7.15;2.30;;;;;;;;;;5064098;28;20437;-87
2021/05/16 07:46:12;;;;;;;5.55;1.67;;;;;;;;;;5065076;28;20176;-84
2021/05/16 07:48:38;;;;;;;6.37;1.60;;;;;;;;;;5059411;28;20205;-84
2021/05/16 07:51:07;;;;;;;4.05;1.85;;;;;;;;;;5057092;28;20497;-85
2021/05/16 07:53:35;;;;;;;2.90;1.50;;;;;;;;;;5059782;28;20185;-85
2021/05/16 07:56:03;;;;;;;5.05;1.60;;;;;;;;;;5060276;28;20186;-86
2021/05/16 07:58:29;;;;;;;6.30;1.52;;;;;;;;;;5062579;28;20288;-86
2021/05/16 08:00:55;;;;;;;2.75;1.55;;;;;;;;;;5060946;28;20170;-86
2021/05/16 08:03:21;;;;;;;6.75;1.67;;;;;;;;;;5079246;28;20216;-84
2021/05/16 08:05:47;;;;;;;5.47;1.90;;;;;;;;;;5059907;28;20216;-85
2021/05/16 08:08:13;;;;;;;4.60;1.70;;;;;;;;;;5075870;28;20444;-85
2021/05/16 08:10:40;;;;;;;3.35;1.80;;;;;;;;;;5079847;28;20230;-85
2021/05/16 08:13:06;;;;;;;5.03;1.83;;;;;;;;;;5061867;28;20201;-85
2021/05/16 08:15:33;;;;;;;8.65;2.15;;;;;;;;;;5061720;28;20525;-83
2021/05/16 08:18:00;;;;;;;4.00;1.58;;;;;;;;;;5068300;28;20193;-87
2021/05/16 08:20:26;;;;;;;7.05;1.85;;;;;;;;;;5062528;28;20181;-83
2021/05/16 08:22:52;;;;;;;4.82;1.73;;;;;;;;;;5077732;28;20189;-82
2021/05/16 08:25:19;;;;;;;7.37;1.73;;;;;;;;;;5060722;28;20190;-83
2021/05/16 08:27:45;;;;;;;3.55;1.80;;;;;;;;;;5064790;28;20450;-84
2021/05/16 08:30:11;;;;;;;6.88;2.13;;;;;;;;;;5065994;28;20185;-82
2021/05/16 08:32:37;;;;;;;4.70;1.85;;;;;;;;;;5059354;28;20265;-83
2021/05/16 08:35:04;;;;;;;3.80;1.60;;;;;;;;;;5059852;28;20212;-83
2021/05/16 08:37:30;;;;;;;9.35;2.20;;;;;;;;;;5064181;28;20824;-83
2021/05/16 08:39:56;;;;;;;10.52;1.98;;;;;;;;;;5064227;28;20217;-83
2021/05/16 08:42:22;;;;;;;3.27;1.70;;;;;;;;;;5073085;28;20544;-85
2021/05/16 08:44:48;;;;;;;3.75;1.50;;;;;;;;;;5058228;28;20443;-86
2021/05/16 08:47:15;;;;;;;6.00;1.90;;;;;;;;;;5062905;28;20193;-86
2021/05/16 08:49:41;;;;;;;6.18;1.83;;;;;;;;;;5062658;28;20183;-84
2021/05/16 08:52:07;;;;;;;3.67;1.20;;;;;;;;;;5064487;28;20200;-86
2021/05/16 08:54:33;;;;;;;4.35;1.50;;;;;;;;;;5078220;28;20205;-85
2021/05/16 08:56:59;;;;;;;5.63;1.65;;;;;;;;;;5063766;28;20185;-84
2021/05/16 08:59:27;;;;;;;3.38;1.50;;;;;;;;;;5060998;28;20189;-84
2021/05/16 09:01:59;;;;;;;3.85;1.80;;;;;;;;;;5060227;28;20542;-82
2021/05/16 09:04:37;;;;;;;4.80;1.50;;;;;;;;;;5073222;28;20371;-84
2021/05/16 09:07:04;;;;;;;3.05;1.63;;;;;;;;;;5062718;28;20189;-86
2021/05/16 09:09:36;;;;;;;2.13;1.75;;;;;;;;;;5056890;28;20227;-84
2021/05/16 09:12:07;;;;;;;2.70;2.10;;;;;;;;;;5058845;28;20205;-86
2021/05/16 09:14:40;;;;;;;6.45;1.90;;;;;;;;;;5060435;28;20178;-84
2021/05/16 09:17:26;;;;;;;2.38;1.00;;;;;;;;;;5061854;28;20245;-85
2021/05/16 09:19:53;;;;;;;2.95;1.48;;;;;;;;;;5059096;28;20770;-83
2021/05/16 09:22:39;;;;;;;4.22;1.30;;;;;;;;;;5061917;28;20180;-86
2021/05/16 09:25:05;;;;;;;2.97;0.93;;;;;;;;;;5060070;28;20252;-86
2021/05/16 09:27:34;;;;;;;4.07;1.42;;;;;;;;;;5057775;28;20190;-85
2021/05/16 09:30:00;;;;;;;3.33;1.50;;;;;;;;;;5056699;28;20187;-85
2021/05/16 09:32:27;;;;;;;1.58;1.15;;;;;;;;;;5061023;28;20204;-82
2021/05/16 09:34:53;;;;;;;4.07;1.23;;;;;;;;;;5059578;28;20184;-86
2021/05/16 09:37:21;;;;;;;4.82;1.00;;;;;;;;;;5058028;28;20166;-84
2021/05/16 09:39:47;;;;;;;2.72;1.70;;;;;;;;;;5062217;28;20184;-86
2021/05/16 09:42:17;;;;;;;3.80;2.03;;;;;;;;;;5061599;28;20197;-85
2021/05/16 09:44:45;;;;;;;3.45;1.20;;;;;;;;;;5074687;28;20212;-85
2021/05/16 09:47:20;;;;;;;3.70;0.98;;;;;;;;;;5058255;28;20179;-86
2021/05/16 09:49:48;;;;;;;1.35;1.20;;;;;;;;;;5073579;28;20195;-86
2021/05/16 09:52:15;;;;;;;3.05;1.08;;;;;;;;;;5063210;28;20193;-83
2021/05/16 09:54:57;;;;;;;2.13;1.05;;;;;;;;;;5060985;28;20174;-86
2021/05/16 09:57:23;;;;;;;2.85;0.98;;;;;;;;;;5058389;28;20181;-87
2021/05/16 09:59:49;;;;;;;2.83;1.75;;;;;;;;;;5058575;28;20199;-84
2021/05/16 10:02:16;;;;;;;1.88;1.05;;;;;;;;;;5062183;28;20184;-84
2021/05/16 10:04:45;;;;;;;4.72;1.20;;;;;;;;;;5076701;28;20174;-88
2021/05/16 10:07:11;;;;;;;2.15;1.42;;;;;;;;;;5065990;28;20209;-84
2021/05/16 10:09:37;;;;;;;3.20;1.60;;;;;;;;;;5060420;28;20254;-84
2021/05/16 10:12:07;;;;;;;2.53;1.90;;;;;;;;;;5066390;28;20460;-84
2021/05/16 10:14:37;;;;;;;2.45;1.35;;;;;;;;;;5066181;28;20188;-82
2021/05/16 10:17:04;;;;;;;3.80;2.03;;;;;;;;;;5080299;28;20188;-82
2021/05/16 10:19:34;;;;;;;2.85;1.23;;;;;;;;;;5076461;28;20216;-83
2021/05/16 10:22:03;;;;;;;2.30;1.50;;;;;;;;;;5064902;28;20181;-83
2021/05/16 10:24:37;;;;;;;6.78;3.08;;;;;;;;;;5061357;28;20193;-85
2021/05/16 10:27:22;;;;;;;3.42;2.20;;;;;;;;;;5058172;28;20192;-83
2021/05/16 10:29:57;;;;;;;4.70;2.70;;;;;;;;;;5061605;28;20193;-87
2021/05/16 10:32:23;;;;;;;5.32;2.25;;;;;;;;;;5048416;28;20204;-83
2021/05/16 10:34:53;;;;;;;4.17;1.97;;;;;;;;;;5075862;28;20716;-83
2021/05/16 10:37:37;;;;;;;4.82;2.55;;;;;;;;;;5059085;28;20424;-86
2021/05/16 10:40:04;;;;;;;3.35;1.63;;;;;;;;;;5064824;28;20253;-85
2021/05/16 10:42:38;;;;;;;2.90;1.52;;;;;;;;;;5060902;28;20181;-85
2021/05/16 10:45:09;;;;;;;5.30;1.25;;;;;;;;;;5077771;28;20207;-84
2021/05/16 10:47:50;;;;;;;4.95;1.55;;;;;;;;;;5058995;28;20220;-85
2021/05/16 10:50:21;;;;;;;3.95;1.55;;;;;;;;;;5064369;28;20196;-81
2021/05/16 10:52:57;;;;;;;2.20;1.00;;;;;;;;;;5080158;28;20201;-82
2021/05/16 10:55:30;;;;;;;3.58;1.20;;;;;;;;;;5065117;28;20203;-83
2021/05/16 10:57:57;;;;;;;2.42;1.40;;;;;;;;;;5062192;28;20177;-83
2021/05/16 11:00:26;;;;;;;3.55;1.60;;;;;;;;;;5065831;28;20219;-83
2021/05/16 11:02:59;;;;;;;4.40;1.73;;;;;;;;;;5062905;28;20184;-82
2021/05/16 11:05:46;;;;;;;2.67;1.50;;;;;;;;;;5065068;28;20181;-84
2021/05/16 11:08:32;;;;;;;3.05;1.60;;;;;;;;;;5080823;28;20196;-86
2021/05/16 11:10:58;;;;;;;5.75;2.47;;;;;;;;;;5062103;28;20496;-82
2021/05/16 11:13:29;;;;;;;2.55;1.00;;;;;;;;;;5058061;28;20233;-87
2021/05/16 11:15:56;;;;;;;1.60;1.02;;;;;;;;;;5059446;28;20197;-84
2021/05/16 11:18:22;;;;;;;4.22;1.48;;;;;;;;;;5060719;28;20192;-84
2021/05/16 11:20:51;;;;;;;2.88;1.45;;;;;;;;;;5061077;28;20311;-82
2021/05/16 11:23:37;;;;;;;3.17;1.20;;;;;;;;;;5059674;28;20193;-80
2021/05/16 11:26:03;;;;;;;2.88;1.52;;;;;;;;;;5064418;28;20216;-82
2021/05/16 11:28:30;;;;;;;2.90;1.50;;;;;;;;;;5064950;28;20181;-81
2021/05/16 11:30:56;;;;;;;2.53;1.27;;;;;;;;;;5063719;28;20443;-82
2021/05/16 11:33:26;;;;;;;4.57;1.77;;;;;;;;;;5075559;28;20540;-82
2021/05/16 11:35:52;;;;;;;2.25;1.20;;;;;;;;;;5064298;28;20251;-82
2021/05/16 11:38:25;;;;;;;3.80;1.50;;;;;;;;;;5078231;28;20303;-85
2021/05/16 11:40:53;;;;;;;2.00;1.70;;;;;;;;;;5079018;28;20195;-83
2021/05/16 11:43:26;;;;;;;4.47;2.30;;;;;;;;;;5066707;28;20655;-86
2021/05/16 11:45:52;;;;;;;3.53;1.73;;;;;;;;;;5079181;28;20599;-85
2021/05/16 11:48:34;;;;;;;2.20;1.20;;;;;;;;;;5059269;28;20184;-82
2021/05/16 11:51:10;;;;;;;10.00;1.77;;;;;;;;;;5060116;28;20441;-81
2021/05/16 11:53:37;;;;;;;3.38;1.95;;;;;;;;;;5065607;28;20177;-83
2021/05/16 11:56:09;;;;;;;3.20;1.20;;;;;;;;;;5064739;28;20181;-81
2021/05/16 11:58:37;;;;;;;4.10;2.00;;;;;;;;;;5059139;28;20181;-81
2021/05/16 12:01:09;;;;;;;3.25;1.58;;;;;;;;;;5063640;28;20176;-84
2021/05/16 12:03:35;;;;;;;3.65;1.70;;;;;;;;;;5061976;28;20191;-82
2021/05/16 12:06:05;;;;;;;6.47;1.73;;;;;;;;;;5062654;28;20209;-81
2021/05/16 12:08:31;;;;;;;5.25;1.88;;;;;;;;;;5058699;28;20467;-83
2021/05/16 12:11:05;;;;;;;6.30;1.70;;;;;;;;;;5061175;28;20567;-82
2021/05/16 12:13:32;;;;;;;4.82;1.73;;;;;;;;;;5060835;28;20696;-83
2021/05/16 12:16:18;;;;;;;6.65;2.15;;;;;;;;;;5061700;28;20286;-83
2021/05/16 12:18:45;;;;;;;2.72;1.55;;;;;;;;;;5058835;28;20180;-82
2021/05/16 12:21:11;;;;;;;5.30;1.90;;;;;;;;;;5062984;28;20426;-84
2021/05/16 12:23:39;;;;;;;2.00;1.20;;;;;;;;;;5069553;28;20588;-81
2021/05/16 12:26:06;;;;;;;3.17;1.35;;;;;;;;;;5064843;28;20697;-83
2021/05/16 12:28:32;;;;;;;4.05;2.50;;;;;;;;;;5063860;28;20618;-84
2021/05/16 12:30:59;;;;;;;2.05;1.38;;;;;;;;;;5064176;28;20169;-82
2021/05/16 12:33:25;;;;;;;2.55;1.55;;;;;;;;;;5075721;28;20177;-83
2021/05/16 12:35:51;;;;;;;5.75;1.50;;;;;;;;;;5062889;28;20176;-83
2021/05/16 12:38:17;;;;;;;3.25;1.30;;;;;;;;;;5062816;28;20189;-83
2021/05/16 12:40:44;;;;;;;3.92;1.25;;;;;;;;;;5063002;28;20228;-82
2021/05/16 12:43:11;;;;;;;4.60;1.83;;;;;;;;;;5078342;28;20400;-83
2021/05/16 12:45:39;;;;;;;4.83;2.03;;;;;;;;;;5058795;28;20422;-82
2021/05/16 12:48:12;;;;;;;5.70;1.63;;;;;;;;;;5057419;28;20432;-84
2021/05/16 12:50:40;;;;;;;4.30;1.50;;;;;;;;;;5060998;28;20432;-81
2021/05/16 12:53:25;;;;;;;5.90;1.47;;;;;;;;;;5073892;28;20466;-82
2021/05/16 12:55:52;;;;;;;6.30;1.30;;;;;;;;;;5061667;28;20434;-81
2021/05/16 12:58:23;;;;;;;2.83;1.30;;;;;;;;;;5066941;28;20442;-84
2021/05/16 13:00:55;;;;;;;2.97;1.20;;;;;;;;;;5058559;28;20411;-79
2021/05/16 13:03:29;;;;;;;2.60;1.10;;;;;;;;;;5063364;28;20408;-82
2021/05/16 13:05:55;;;;;;;3.53;1.23;;;;;;;;;;5064236;28;20412;-84
2021/05/16 13:08:37;;;;;;;3.03;1.07;;;;;;;;;;5061406;28;20444;-85
2021/05/16 13:11:04;;;;;;;4.13;1.70;;;;;;;;;;5072917;28;20519;-79
2021/05/16 13:13:38;;;;;;;1.97;0.83;;;;;;;;;;5061897;28;20503;-81
2021/05/16 13:16:06;;;;;;;4.90;1.70;;;;;;;;;;5057835;28;20424;-80
2021/05/16 13:18:46;;;;;;;3.73;1.30;;;;;;;;;;5059111;28;20407;-83
2021/05/16 13:21:15;;;;;;;3.70;1.90;;;;;;;;;;5057017;28;21560;-81
2021/05/16 13:23:42;;;;;;;4.20;2.00;;;;;;;;;;5057875;28;20526;-83
2021/05/16 13:26:08;;;;;;;3.23;1.53;;;;;;;;;;5068235;28;20441;-79
2021/05/16 13:28:36;;;;;;;4.90;2.23;;;;;;;;;;5077223;28;20418;-79
2021/05/16 13:31:02;;;;;;;2.67;1.23;;;;;;;;;;5076951;28;20439;-83
2021/05/16 13:33:32;;;;;;;6.30;1.43;;;;;;;;;;5061148;28;20431;-83
2021/05/16 13:35:59;;;;;;;7.30;1.30;;;;;;;;;;5068702;28;20427;-82
2021/05/16 13:38:27;;;;;;;2.97;1.73;;;;;;;;;;5059849;28;20410;-80
2021/05/16 13:40:53;;;;;;;3.73;1.17;;;;;;;;;;5059703;28;20662;-80
2021/05/16 13:43:19;;;;;;;2.17;1.13;;;;;;;;;;5059441;28;20402;-77
2021/05/16 13:45:45;;;;;;;2.53;1.20;;;;;;;;;;5061569;28;20467;-77
2021/05/16 13:48:11;;;;;;;3.10;1.40;;;;;;;;;;5055160;28;20436;-78
2021/05/16 13:50:37;;;;;;;2.50;1.47;;;;;;;;;;5057006;28;20450;-81
2021/05/16 13:53:03;;;;;;;5.50;1.07;;;;;;;;;;5061153;28;20494;-79
2021/05/16 13:55:29;;;;;;;5.80;1.63;;;;;;;;;;5072440;28;20411;-79
2021/05/16 13:57:55;;;;;;;4.05;1.95;;;;;;;;;;5061866;28;20388;-79
2021/05/16 14:00:21;;;;;;;5.65;1.30;;;;;;;;;;5057467;28;20237;-77
2021/05/16 14:02:49;;;;;;;5.28;1.48;;;;;;;;;;5064196;28;20180;-79
2021/05/16 14:05:15;;;;;;;3.55;1.40;;;;;;;;;;5058983;28;20179;-80
2021/05/16 14:07:41;;;;;;;4.68;1.88;;;;;;;;;;5074792;28;20231;-81
2021/05/16 14:10:07;;;;;;;4.33;1.37;;;;;;;;;;5059680;28;20259;-77
2021/05/16 14:12:33;;;;;;;2.55;1.23;;;;;;;;;;5052976;28;20460;-81
2021/05/16 14:14:59;;;;;;;2.90;1.00;;;;;;;;;;5055613;28;20238;-77
2021/05/16 14:17:25;;;;;;;5.75;1.27;;;;;;;;;;5070563;28;20432;-80
2021/05/16 14:19:51;;;;;;;1.95;1.00;;;;;;;;;;5058508;28;20205;-80
2021/05/16 14:22:18;;;;;;;3.58;1.05;;;;;;;;;;5045143;28;20652;-81
2021/05/16 14:24:45;;;;;;;3.00;1.17;;;;;;;;;;5059895;28;20202;-80
2021/05/16 14:27:11;;;;;;;2.50;1.95;;;;;;;;;;5056573;28;20194;-80
2021/05/16 14:29:37;;;;;;;2.45;1.10;;;;;;;;;;5057213;28;20209;-82
2021/05/16 14:32:03;;;;;;;2.78;1.00;;;;;;;;;;5062076;28;20590;-77
2021/05/16 14:34:29;;;;;;;2.47;1.17;;;;;;;;;;5058502;28;20199;-81
2021/05/16 14:36:55;;;;;;;1.53;0.90;;;;;;;;;;5060459;28;20173;-81
2021/05/16 14:39:21;;;;;;;2.80;1.00;;;;;;;;;;5054313;28;20519;-83
2021/05/16 14:41:47;;;;;;;3.03;1.40;;;;;;;;;;5060908;28;20177;-82